Weather at Las Condes Heliport

Public forecast

Using degrees Celsius for public forecast. Weather courtesy of forecast.io.

Closest aviation weather report (METAR) to Las Condes Heliport

Report is more than 6 hours old.

Closest report is Eulogio Sánchez Airport, 5.1 nm (9.5 km) SSW. Retrieved 2020/09/26 22:00 UTC (7 hours ago):

SCTB 262200Z 23007KT CAVOK 17/04 Q1021

Closest aviation forecast (TAF) to Las Condes Heliport

Closest forecast is Comodoro Arturo Merino Benítez International Airport, 13.2 nm (24.4 km) W. Retrieved 2020-09-27 00:00 UTC (5 hours ago):

TAF SCEL 262200Z 2700/2724 21012KT CAVOK TX24/2719Z TN04/2711Z BECMG 2700/2702 16004KT BECMG 2704/2706 7000 NSC BECMG 2713/2715 CAVOK BECMG 2716/2718 19012KT